createdAt,value
2018-04-29T00:02:17.682Z,101118.86
2018-04-29T00:04:46.629Z,101115.15
2018-04-29T00:07:15.047Z,101112.32
2018-04-29T00:09:43.553Z,101111.13
2018-04-29T00:12:12.958Z,101114.19
2018-04-29T00:14:41.693Z,101107.75
2018-04-29T00:17:17.530Z,101106.95
2018-04-29T00:19:46.295Z,101100.12
2018-04-29T00:22:15.568Z,101103.36
2018-04-29T00:27:18.780Z,101102.95
2018-04-29T00:29:47.418Z,101101.16
2018-04-29T00:32:16.729Z,101095.81
2018-04-29T00:34:45.501Z,101099.23
2018-04-29T00:37:13.999Z,101102.73
2018-04-29T00:39:42.535Z,101096.05
2018-04-29T00:42:12.206Z,101089.77
2018-04-29T00:44:40.588Z,101090.66
2018-04-29T00:47:09.370Z,101089.06
2018-04-29T00:49:37.783Z,101082.39
2018-04-29T00:52:07.022Z,101082.53
2018-04-29T00:54:36.474Z,101078.95
2018-04-29T00:57:05.183Z,101083.46
2018-04-29T00:59:33.560Z,101088.97
2018-04-29T01:02:02.048Z,101088.83
2018-04-29T01:04:31.172Z,101087.41
2018-04-29T01:07:00.157Z,101094.91
2018-04-29T01:09:28.828Z,101090.92
2018-04-29T01:11:58.511Z,101089.03
2018-04-29T01:14:27.165Z,101081.25
2018-04-29T01:16:55.973Z,101082.77
2018-04-29T01:19:24.867Z,101083.77
2018-04-29T01:21:53.966Z,101074.18
2018-04-29T01:24:22.436Z,101073.92
2018-04-29T01:26:50.811Z,101070.75
2018-04-29T01:29:19.240Z,101072.64
2018-04-29T01:31:47.917Z,101067.87
2018-04-29T01:34:17.248Z,101067.28
2018-04-29T01:36:46.824Z,101075.19
2018-04-29T01:39:15.590Z,101063.90
2018-04-29T01:41:43.947Z,101053.05
2018-04-29T01:44:12.315Z,101056.18
2018-04-29T01:46:41.860Z,101060.74
2018-04-29T01:49:10.233Z,101064.45
2018-04-29T01:51:38.911Z,101054.54
2018-04-29T01:54:07.730Z,101053.94
2018-04-29T01:56:37.228Z,101051.50
2018-04-29T01:59:05.948Z,101055.58
2018-04-29T02:01:34.554Z,101041.75
2018-04-29T02:04:04.613Z,101041.59
2018-04-29T02:06:33.043Z,101032.55
2018-04-29T02:09:01.400Z,101028.27
2018-04-29T02:11:30.280Z,101022.25
2018-04-29T02:13:58.704Z,101024.26
2018-04-29T02:16:27.671Z,101026.59
2018-04-29T02:18:56.478Z,101026.02
2018-04-29T02:21:25.019Z,101020.41
2018-04-29T02:23:53.408Z,101018.39
2018-04-29T02:26:23.151Z,101015.61
2018-04-29T02:28:51.675Z,101013.50
2018-04-29T02:31:20.132Z,101006.86
2018-04-29T02:33:48.626Z,101009.13
2018-04-29T02:36:17.081Z,101009.02
2018-04-29T02:38:45.448Z,101000.81
2018-04-29T02:41:13.939Z,100994.98
2018-04-29T02:43:42.823Z,100992.73
2018-04-29T02:46:12.004Z,100985.41
2018-04-29T02:48:40.366Z,100975.44
2018-04-29T02:51:08.800Z,100977.38
2018-04-29T02:53:37.581Z,100968.55
2018-04-29T02:56:07.341Z,100973.14
2018-04-29T02:58:36.085Z,100970.16
2018-04-29T03:01:04.676Z,100966.06
2018-04-29T03:03:33.190Z,100961.12
2018-04-29T03:06:02.687Z,100960.68
2018-04-29T03:08:31.969Z,100949.81
2018-04-29T03:11:00.913Z,100948.87
2018-04-29T03:13:29.371Z,100951.27
2018-04-29T03:15:58.120Z,100945.81
2018-04-29T03:18:27.064Z,100955.72
2018-04-29T03:20:55.727Z,100948.94
2018-04-29T03:23:24.392Z,100938.00
2018-04-29T03:25:53.243Z,100937.25
2018-04-29T03:28:22.781Z,100939.28
2018-04-29T03:30:51.876Z,100931.02
2018-04-29T03:33:20.288Z,100933.87
2018-04-29T03:35:48.983Z,100924.53
2018-04-29T03:38:17.335Z,100923.29
2018-04-29T03:40:47.252Z,100926.09
2018-04-29T03:43:15.748Z,100928.04
2018-04-29T03:45:44.831Z,100925.27
2018-04-29T03:48:14.678Z,100936.55
2018-04-29T03:50:43.725Z,100927.83
2018-04-29T03:53:12.090Z,100935.77
2018-04-29T03:55:40.575Z,100933.58
2018-04-29T03:58:21.175Z,100936.39
2018-04-29T04:01:01.495Z,100931.26
2018-04-29T04:03:41.999Z,100939.98
2018-04-29T04:06:10.391Z,100944.04
2018-04-29T04:08:38.871Z,100940.97
2018-04-29T04:11:07.229Z,100943.78
2018-04-29T04:13:35.901Z,100953.34
2018-04-29T04:16:05.357Z,100953.03
2018-04-29T04:18:33.712Z,100952.00
2018-04-29T04:21:02.230Z,100951.87
2018-04-29T04:23:31.070Z,100955.52
2018-04-29T04:25:59.784Z,100960.88
2018-04-29T04:28:28.542Z,100965.48
2018-04-29T04:30:57.401Z,100961.13
2018-04-29T04:33:26.169Z,100966.97
2018-04-29T04:35:54.913Z,100965.06
2018-04-29T04:38:23.594Z,100964.92
2018-04-29T04:40:52.473Z,100965.22
2018-04-29T04:43:22.437Z,100967.16
2018-04-29T04:45:50.807Z,100971.98
2018-04-29T04:48:19.664Z,100967.05
2018-04-29T04:50:48.367Z,100966.29
2018-04-29T04:53:16.934Z,100968.55
2018-04-29T04:55:46.080Z,100973.29
2018-04-29T04:58:14.651Z,100969.92
2018-04-29T05:00:43.456Z,100976.73
2018-04-29T05:03:12.364Z,100980.74
2018-04-29T05:05:40.747Z,100983.33
2018-04-29T05:08:09.115Z,100986.00
2018-04-29T05:10:37.495Z,100988.13
2018-04-29T05:13:05.891Z,100988.19
2018-04-29T05:15:34.253Z,100989.49
2018-04-29T05:18:03.071Z,100995.55
2018-04-29T05:20:31.805Z,100998.14
2018-04-29T05:23:00.533Z,101000.81
2018-04-29T05:25:30.173Z,101010.98
2018-04-29T05:27:59.614Z,101004.84
2018-04-29T05:30:28.268Z,101002.02
2018-04-29T05:32:56.704Z,101012.10
2018-04-29T05:35:25.936Z,101013.58
2018-04-29T05:37:54.810Z,101014.41
2018-04-29T05:40:24.442Z,101017.90
2018-04-29T05:42:52.819Z,101012.42
2018-04-29T05:45:21.854Z,101016.88
2018-04-29T05:47:50.352Z,101020.61
2018-04-29T05:50:20.197Z,101014.95
2018-04-29T05:52:48.886Z,101015.78
2018-04-29T05:55:17.627Z,101023.19
2018-04-29T05:57:45.987Z,101025.89
2018-04-29T06:00:14.465Z,101022.48
2018-04-29T06:02:43.059Z,101035.04
2018-04-29T06:05:12.172Z,101031.00
2018-04-29T06:07:40.526Z,101033.38
2018-04-29T06:10:08.935Z,101037.01
2018-04-29T06:12:38.484Z,101038.85
2018-04-29T06:15:07.494Z,101041.42
2018-04-29T06:17:36.641Z,101025.30
2018-04-29T06:20:05.354Z,101033.61
2018-04-29T06:22:34.506Z,101042.40
2018-04-29T06:25:02.882Z,101042.70
2018-04-29T06:27:33.637Z,101046.06
2018-04-29T06:30:02.038Z,101047.98
2018-04-29T06:32:30.399Z,101051.84
2018-04-29T06:34:58.772Z,101060.30
2018-04-29T06:37:28.824Z,101071.78
2018-04-29T06:39:57.187Z,101063.02
2018-04-29T06:42:26.004Z,101064.76
2018-04-29T06:44:55.161Z,101064.17
2018-04-29T06:47:24.493Z,101063.20
2018-04-29T06:49:52.884Z,101058.70
2018-04-29T06:52:21.480Z,101066.61
2018-04-29T06:54:49.878Z,101084.63
2018-04-29T06:57:19.420Z,101078.66
2018-04-29T06:59:47.810Z,101075.52
2018-04-29T07:02:16.301Z,101082.78
2018-04-29T07:04:44.707Z,101076.85
2018-04-29T07:07:13.602Z,101081.22
2018-04-29T07:09:43.007Z,101088.48
2018-04-29T07:12:11.433Z,101080.77
2018-04-29T07:14:40.110Z,101084.16
2018-04-29T07:17:08.987Z,101095.70
2018-04-29T07:19:37.708Z,101088.34
2018-04-29T07:22:06.145Z,101103.97
2018-04-29T07:24:34.542Z,101090.05
2018-04-29T07:27:03.913Z,101085.50
2018-04-29T07:29:32.949Z,101083.94
2018-04-29T07:32:01.482Z,101088.89
2018-04-29T07:34:29.905Z,101086.91
2018-04-29T07:36:58.650Z,101087.67
2018-04-29T07:39:27.011Z,101095.41
2018-04-29T07:41:55.627Z,101092.47
2018-04-29T07:44:24.010Z,101090.38
2018-04-29T07:46:52.598Z,101091.02
2018-04-29T07:49:21.081Z,101093.65
2018-04-29T07:51:50.088Z,101099.53
2018-04-29T07:54:19.637Z,101100.97
2018-04-29T07:56:48.303Z,101105.72
2018-04-29T07:59:16.655Z,101113.97
2018-04-29T08:01:45.388Z,101115.73
2018-04-29T08:04:13.870Z,101113.03
2018-04-29T08:06:42.271Z,101113.53
2018-04-29T08:09:11.006Z,101124.87
2018-04-29T08:11:39.455Z,101126.64
2018-04-29T08:14:10.271Z,101125.58
2018-04-29T08:16:38.631Z,101126.28
2018-04-29T08:19:07.210Z,101128.80
2018-04-29T08:21:36.391Z,101124.11
2018-04-29T08:24:05.587Z,101130.56
2018-04-29T08:26:34.238Z,101132.80
2018-04-29T08:29:03.145Z,101144.16
2018-04-29T08:31:31.500Z,101138.47
2018-04-29T08:34:00.523Z,101144.20
2018-04-29T08:36:29.191Z,101147.05
2018-04-29T08:38:57.664Z,101138.91
2018-04-29T08:41:26.693Z,101147.08
2018-04-29T08:43:55.287Z,101149.88
2018-04-29T08:46:24.345Z,101151.24
2018-04-29T08:48:53.010Z,101155.47
2018-04-29T08:51:21.836Z,101151.95
2018-04-29T08:53:51.052Z,101152.99
2018-04-29T08:56:19.511Z,101146.43
2018-04-29T08:58:47.907Z,101145.14
2018-04-29T09:01:16.513Z,101145.57
2018-04-29T09:03:45.416Z,101147.73
2018-04-29T09:06:14.195Z,101153.59
2018-04-29T09:08:42.645Z,101144.95
2018-04-29T09:11:12.027Z,101147.86
2018-04-29T09:13:40.431Z,101139.16
2018-04-29T09:16:08.807Z,101146.77
2018-04-29T09:18:37.677Z,101151.63
2018-04-29T09:21:06.512Z,101151.90
2018-04-29T09:23:35.599Z,101153.30
2018-04-29T09:26:03.962Z,101154.59
2018-04-29T09:28:32.321Z,101150.11
2018-04-29T09:31:01.102Z,101155.65
2018-04-29T09:33:29.602Z,101158.19
2018-04-29T09:35:57.977Z,101160.11
2018-04-29T09:38:26.590Z,101164.50
2018-04-29T09:40:55.625Z,101162.28
2018-04-29T09:43:23.974Z,101162.34
2018-04-29T09:45:52.327Z,101166.77
2018-04-29T09:48:20.871Z,101167.02
2018-04-29T09:50:49.241Z,101165.33
2018-04-29T09:53:18.105Z,101165.64
2018-04-29T09:55:47.014Z,101170.43
2018-04-29T09:58:15.704Z,101165.17
2018-04-29T10:00:50.577Z,101162.98
2018-04-29T10:03:19.945Z,101173.45
2018-04-29T10:05:48.797Z,101164.97
2018-04-29T10:08:17.485Z,101162.56
2018-04-29T10:10:46.297Z,101161.67
2018-04-29T10:13:14.969Z,101149.31
2018-04-29T10:15:55.610Z,101152.08
2018-04-29T10:18:23.968Z,101151.47
2018-04-29T10:20:52.337Z,101134.68
2018-04-29T10:23:20.827Z,101143.97
2018-04-29T10:25:49.322Z,101148.70
2018-04-29T10:28:17.776Z,101143.38
2018-04-29T10:32:20.558Z,101151.25
2018-04-29T10:34:48.985Z,101153.11
2018-04-29T10:37:17.406Z,101149.41
2018-04-29T10:39:46.162Z,101149.55
2018-04-29T10:42:14.776Z,101147.64
2018-04-29T10:44:43.405Z,101144.75
2018-04-29T10:47:11.850Z,101149.06
2018-04-29T10:49:40.686Z,101145.86
2018-04-29T10:52:09.076Z,101139.02
2018-04-29T10:54:37.895Z,101149.70
2018-04-29T10:57:06.416Z,101146.97
2018-04-29T10:59:34.800Z,101145.33
2018-04-29T11:02:03.176Z,101143.53
2018-04-29T11:04:31.834Z,101147.41
2018-04-29T11:07:01.053Z,101147.03
2018-04-29T11:09:29.498Z,101140.55
2018-04-29T11:14:32.379Z,101149.53
2018-04-29T11:17:00.764Z,101147.00
2018-04-29T11:19:29.840Z,101151.02
2018-04-29T11:21:59.029Z,101151.02
2018-04-29T11:24:27.552Z,101134.05
2018-04-29T11:26:55.902Z,101133.45
2018-04-29T11:29:24.792Z,101138.40
2018-04-29T11:31:54.507Z,101145.09
2018-04-29T11:34:22.884Z,101136.94
2018-04-29T11:36:52.321Z,101140.41
2018-04-29T11:39:20.771Z,101147.25
2018-04-29T11:41:49.803Z,101144.33
2018-04-29T11:44:18.155Z,101143.38
2018-04-29T11:46:46.695Z,101137.66
2018-04-29T11:49:15.394Z,101131.20
2018-04-29T11:51:45.060Z,101137.34
2018-04-29T11:54:13.414Z,101128.97
2018-04-29T11:56:41.881Z,101128.91
2018-04-29T11:59:10.776Z,101129.12
2018-04-29T12:01:39.208Z,101122.78
2018-04-29T12:04:07.565Z,101124.66
2018-04-29T12:06:36.417Z,101127.85
2018-04-29T12:09:04.791Z,101130.62
2018-04-29T12:11:33.500Z,101123.17
2018-04-29T12:14:03.080Z,101126.75
2018-04-29T12:16:31.492Z,101126.75
2018-04-29T12:18:59.879Z,101125.19
2018-04-29T12:21:28.238Z,101128.09
2018-04-29T12:23:57.341Z,101130.56
2018-04-29T12:26:25.706Z,101129.48
2018-04-29T12:28:54.622Z,101128.11
2018-04-29T12:31:23.005Z,101130.56
2018-04-29T12:33:51.376Z,101131.70
2018-04-29T12:36:19.737Z,101135.27
2018-04-29T12:38:50.027Z,101138.92
2018-04-29T12:41:18.488Z,101145.05
2018-04-29T12:43:49.731Z,101143.14
2018-04-29T12:46:18.995Z,101140.70
2018-04-29T12:48:47.377Z,101146.55
2018-04-29T12:51:16.119Z,101142.06
2018-04-29T12:53:44.477Z,101140.55
2018-04-29T12:56:13.440Z,101142.09
2018-04-29T12:58:41.981Z,101141.78
2018-04-29T13:01:10.708Z,101145.48
2018-04-29T13:03:41.760Z,101141.48
2018-04-29T13:06:10.496Z,101145.40
2018-04-29T13:08:39.274Z,101144.75
2018-04-29T13:11:08.653Z,101143.23
2018-04-29T13:13:37.545Z,101139.72
2018-04-29T13:16:05.912Z,101141.04
2018-04-29T13:18:34.698Z,101143.50
2018-04-29T13:21:03.423Z,101143.25
2018-04-29T13:23:32.193Z,101141.61
2018-04-29T13:26:01.725Z,101136.95
2018-04-29T13:28:30.962Z,101135.75
2018-04-29T13:30:59.413Z,101126.13
2018-04-29T13:33:28.101Z,101125.41
2018-04-29T13:35:56.978Z,101123.27
2018-04-29T13:38:25.524Z,101114.48
2018-04-29T13:40:53.880Z,101113.33
2018-04-29T13:43:22.259Z,101103.67
2018-04-29T13:45:50.956Z,101099.52
2018-04-29T13:48:19.495Z,101104.15
2018-04-29T13:50:47.842Z,101101.69
2018-04-29T13:53:16.563Z,101096.19
2018-04-29T13:55:44.925Z,101095.87
2018-04-29T13:58:13.275Z,101098.39
2018-04-29T14:00:41.798Z,101102.58
2018-04-29T14:03:10.479Z,101097.20
2018-04-29T14:05:38.861Z,101099.17
2018-04-29T14:08:07.659Z,101100.06
2018-04-29T14:10:37.249Z,101096.33
2018-04-29T14:13:06.271Z,101098.55
2018-04-29T14:15:34.853Z,101098.75
2018-04-29T14:18:03.569Z,101095.47
2018-04-29T14:20:32.302Z,101100.05
2018-04-29T14:23:01.352Z,101098.53
2018-04-29T14:25:29.763Z,101094.47
2018-04-29T14:27:59.286Z,101100.16
2018-04-29T14:30:27.908Z,101109.34
2018-04-29T14:32:56.500Z,101112.87
2018-04-29T14:35:24.878Z,101112.73
2018-04-29T14:37:53.259Z,101116.58
2018-04-29T14:40:21.932Z,101114.29
2018-04-29T14:42:50.290Z,101098.05
2018-04-29T14:45:18.777Z,101096.02
2018-04-29T14:47:47.186Z,101103.20
2018-04-29T14:50:15.598Z,101104.17
2018-04-29T14:52:44.267Z,101110.88
2018-04-29T14:55:13.147Z,101114.25
2018-04-29T14:57:41.500Z,101112.44
2018-04-29T15:00:10.642Z,101115.94
2018-04-29T15:02:39.675Z,101121.22
2018-04-29T15:05:08.048Z,101125.13
2018-04-29T15:07:36.409Z,101123.61
2018-04-29T15:10:04.768Z,101120.03
2018-04-29T15:12:33.138Z,101128.08
2018-04-29T15:15:01.805Z,101115.81
2018-04-29T15:17:30.341Z,101116.11
2018-04-29T15:19:59.001Z,101128.52
2018-04-29T15:22:27.413Z,101121.50
2018-04-29T15:24:55.862Z,101125.52
2018-04-29T15:27:24.283Z,101119.03
2018-04-29T15:29:52.646Z,101123.09
2018-04-29T15:32:21.305Z,101122.13
2018-04-29T15:34:50.531Z,101121.72
2018-04-29T15:37:22.597Z,101126.83
2018-04-29T15:39:52.117Z,101122.00
2018-04-29T15:42:20.472Z,101124.61
2018-04-29T15:44:48.851Z,101125.23
2018-04-29T15:47:17.215Z,101123.78
2018-04-29T15:49:46.164Z,101121.39
2018-04-29T15:52:15.629Z,101131.34
2018-04-29T15:54:45.341Z,101123.83
2018-04-29T15:57:13.870Z,101118.72
2018-04-29T15:59:42.234Z,101124.19
2018-04-29T16:02:10.620Z,101129.53
2018-04-29T16:04:38.973Z,101127.41
2018-04-29T16:07:07.647Z,101130.28
2018-04-29T16:09:36.005Z,101135.76
2018-04-29T16:12:04.361Z,101131.03
2018-04-29T16:14:32.749Z,101134.48
2018-04-29T16:17:01.135Z,101139.23
2018-04-29T16:19:29.574Z,101129.55
2018-04-29T16:21:58.011Z,101137.85
2018-04-29T16:24:26.401Z,101143.40
2018-04-29T16:26:56.577Z,101145.12
2018-04-29T16:29:24.983Z,101144.44
2018-04-29T16:31:53.627Z,101144.84
2018-04-29T16:34:22.257Z,101143.23
2018-04-29T16:36:50.629Z,101144.12
2018-04-29T16:39:19.005Z,101138.71
2018-04-29T16:41:47.389Z,101147.81
2018-04-29T16:44:16.368Z,101146.90
2018-04-29T16:46:44.744Z,101143.19
2018-04-29T16:49:13.107Z,101147.81
2018-04-29T16:51:41.471Z,101137.52
2018-04-29T16:54:09.880Z,101141.21
2018-04-29T16:56:38.240Z,101145.70
2018-04-29T16:59:06.608Z,101141.09
2018-04-29T17:01:35.536Z,101141.19
2018-04-29T17:04:04.283Z,101139.34
2018-04-29T17:06:32.656Z,101138.78
2018-04-29T17:09:01.016Z,101136.08
2018-04-29T17:11:29.384Z,101141.71
2018-04-29T17:13:57.776Z,101142.05
2018-04-29T17:16:26.159Z,101141.45
2018-04-29T17:18:54.575Z,101136.33
2018-04-29T17:21:23.079Z,101138.03
2018-04-29T17:23:51.445Z,101141.80
2018-04-29T17:26:19.828Z,101144.42
2018-04-29T17:28:48.195Z,101140.34
2018-04-29T17:31:16.571Z,101134.05
2018-04-29T17:33:45.889Z,101135.27
2018-04-29T17:36:14.256Z,101135.82
2018-04-29T17:38:43.017Z,101131.55
2018-04-29T17:41:11.418Z,101129.58
2018-04-29T17:43:39.795Z,101133.00
2018-04-29T17:46:08.492Z,101129.74
2018-04-29T17:48:36.869Z,101134.63
2018-04-29T17:51:05.258Z,101132.84
2018-04-29T17:53:33.704Z,101139.25
2018-04-29T17:56:02.118Z,101139.98
2018-04-29T17:58:30.433Z,101140.38
2018-04-29T18:00:58.805Z,101145.58
2018-04-29T18:03:27.509Z,101142.63
2018-04-29T18:05:56.538Z,101143.32
2018-04-29T18:08:25.384Z,101144.50
2018-04-29T18:10:53.883Z,101141.63
2018-04-29T18:13:22.661Z,101138.32
2018-04-29T18:15:51.389Z,101127.01
2018-04-29T18:18:19.763Z,101130.51
2018-04-29T18:20:48.269Z,101128.03
2018-04-29T18:23:16.865Z,101129.58
2018-04-29T18:25:45.236Z,101131.13
2018-04-29T18:28:13.620Z,101143.73
2018-04-29T18:30:42.049Z,101147.31
2018-04-29T18:33:11.420Z,101145.39
2018-04-29T18:35:39.852Z,101142.75
2018-04-29T18:38:08.296Z,101139.13
2018-04-29T18:40:36.672Z,101137.05
2018-04-29T18:43:05.244Z,101140.84
2018-04-29T18:45:34.002Z,101142.94
2018-04-29T18:48:02.411Z,101141.22
2018-04-29T18:50:30.965Z,101154.81
2018-04-29T18:53:00.278Z,101151.22
2018-04-29T18:55:29.060Z,101149.04
2018-04-29T18:57:57.423Z,101145.95
2018-04-29T19:00:26.477Z,101135.63
2018-04-29T19:02:54.865Z,101146.21
2018-04-29T19:05:23.553Z,101145.28
2018-04-29T19:07:51.942Z,101146.95
2018-04-29T19:10:20.333Z,101141.19
2018-04-29T19:12:48.726Z,101143.72
2018-04-29T19:15:17.157Z,101138.12
2018-04-29T19:17:46.027Z,101150.15
2018-04-29T19:20:14.451Z,101146.69
2018-04-29T19:22:44.225Z,101142.86
2018-04-29T19:25:12.674Z,101140.71
2018-04-29T19:27:41.398Z,101136.16
2018-04-29T19:30:09.778Z,101134.77
2018-04-29T19:32:38.915Z,101139.61
2018-04-29T19:35:07.324Z,101137.27
2018-04-29T19:37:36.040Z,101138.44
2018-04-29T19:40:04.422Z,101136.60
2018-04-29T19:42:33.060Z,101132.01
2018-04-29T19:45:01.462Z,101129.11
2018-04-29T19:47:31.112Z,101126.69
2018-04-29T19:49:59.720Z,101128.17
2018-04-29T19:52:28.599Z,101124.58
2018-04-29T19:54:57.104Z,101121.70
2018-04-29T19:57:25.877Z,101112.45
2018-04-29T19:59:54.248Z,101111.59
2018-04-29T20:02:22.608Z,101111.41
2018-04-29T20:04:51.150Z,101116.77
2018-04-29T20:07:19.651Z,101114.61
2018-04-29T20:09:48.178Z,101114.06
2018-04-29T20:12:16.876Z,101110.07
2018-04-29T20:14:45.416Z,101114.62
2018-04-29T20:17:14.050Z,101108.08
2018-04-29T20:19:42.535Z,101102.82
2018-04-29T20:22:11.002Z,101106.88
2018-04-29T20:24:39.438Z,101110.04
2018-04-29T20:27:08.065Z,101108.26
2018-04-29T20:29:36.492Z,101105.58
2018-04-29T20:32:05.061Z,101111.04
2018-04-29T20:34:33.536Z,101106.09
2018-04-29T20:37:02.643Z,101107.84
2018-04-29T20:39:31.116Z,101108.61
2018-04-29T20:41:59.558Z,101110.36
2018-04-29T20:44:28.003Z,101108.77
2018-04-29T20:46:56.569Z,101111.15
2018-04-29T20:49:25.161Z,101107.06
2018-04-29T20:51:53.579Z,101105.05
2018-04-29T20:54:21.945Z,101097.05
2018-04-29T20:56:50.682Z,101102.69
2018-04-29T20:59:19.800Z,101104.19
2018-04-29T21:01:48.197Z,101108.96
2018-04-29T21:04:16.629Z,101109.41
2018-04-29T21:06:45.149Z,101111.70
2018-04-29T21:09:13.528Z,101108.47
2018-04-29T21:11:42.207Z,101100.97
2018-04-29T21:14:10.939Z,101103.91
2018-04-29T21:16:39.550Z,101105.95
2018-04-29T21:19:07.911Z,101107.38
2018-04-29T21:21:36.649Z,101101.98
2018-04-29T21:24:05.220Z,101110.70
2018-04-29T21:26:33.845Z,101113.86
2018-04-29T21:29:02.491Z,101114.48
2018-04-29T21:31:31.283Z,101117.98
2018-04-29T21:34:00.188Z,101115.76
2018-04-29T21:36:28.775Z,101110.90
2018-04-29T21:38:57.469Z,101113.71
2018-04-29T21:41:25.898Z,101112.91
2018-04-29T21:43:54.401Z,101109.92
2018-04-29T21:46:22.856Z,101101.69
2018-04-29T21:48:51.796Z,101100.50
2018-04-29T21:51:20.193Z,101095.64
2018-04-29T21:53:48.630Z,101092.91
2018-04-29T21:56:17.402Z,101090.13
2018-04-29T21:58:46.139Z,101093.23
2018-04-29T22:01:14.653Z,101098.16
2018-04-29T22:03:43.040Z,101090.74
2018-04-29T22:06:11.414Z,101088.70
2018-04-29T22:08:40.567Z,101087.69
2018-04-29T22:11:09.824Z,101081.68
2018-04-29T22:13:40.462Z,101084.67
2018-04-29T22:16:09.620Z,101082.69
2018-04-29T22:18:38.346Z,101079.95
2018-04-29T22:21:06.852Z,101076.19
2018-04-29T22:23:35.207Z,101076.52
2018-04-29T22:26:04.137Z,101076.88
2018-04-29T22:28:32.780Z,101074.77
2018-04-29T22:31:01.310Z,101072.67
2018-04-29T22:33:29.675Z,101069.27
2018-04-29T22:35:58.483Z,101070.59
2018-04-29T22:38:26.860Z,101075.69
2018-04-29T22:40:55.378Z,101071.30
2018-04-29T22:43:25.354Z,101066.23
2018-04-29T22:45:55.356Z,101064.88
2018-04-29T22:48:24.509Z,101064.06
2018-04-29T22:50:53.276Z,101063.16
2018-04-29T22:53:23.303Z,101061.81
2018-04-29T22:55:51.664Z,101055.95
2018-04-29T22:58:20.488Z,101054.31
2018-04-29T23:00:49.118Z,101050.94
2018-04-29T23:03:22.347Z,101050.50
2018-04-29T23:05:50.732Z,101045.49
2018-04-29T23:08:19.149Z,101043.00
2018-04-29T23:13:20.209Z,101037.64
2018-04-29T23:15:48.642Z,101036.39
2018-04-29T23:18:17.871Z,101033.36
2018-04-29T23:20:47.379Z,101025.72
2018-04-29T23:23:15.883Z,101023.23
2018-04-29T23:25:44.425Z,101024.04
2018-04-29T23:28:13.478Z,101016.66
2018-04-29T23:30:42.982Z,101015.50
2018-04-29T23:33:11.488Z,101010.94
2018-04-29T23:35:40.433Z,101014.00
2018-04-29T23:38:09.795Z,101008.00
2018-04-29T23:40:39.228Z,101002.03
2018-04-29T23:43:07.613Z,101001.58
2018-04-29T23:45:36.097Z,100998.38
2018-04-29T23:48:04.893Z,101003.48
2018-04-29T23:50:33.260Z,101003.64
2018-04-29T23:53:08.836Z,101003.58
2018-04-29T23:55:39.108Z,101003.22
2018-04-29T23:58:07.636Z,100993.47
